Time;durP1;ratioP1;P1;durP2;ratioP2;P2;SDS_P1;SDS_P2;PMS_P1;PMS_P2;Temp;Humidity;BMP_temperature;BMP_pressure;BME280_temperature;BME280_humidity;BME280_pressure;Samples;Min_cycle;Max_cycle;Signal;HPM_P1;HPM_P2
2023/03/30 00:00:22;;;;;;;5.8;1.6;;;;;;;8.54;92.60254;938.608;;;;
2023/03/30 00:02:49;;;;;;;4.8;1.8;;;;;;;8.52;92.94922;938.521;;;;
2023/03/30 00:05:14;;;;;;;5.7;1.9;;;;;;;8.39;93.70605;938.5826;;;;
2023/03/30 00:07:46;;;;;;;11.1;2.1;;;;;;;8.42;93.34863;938.582;;;;
2023/03/30 00:10:13;;;;;;;5.1;1.5;;;;;;;8.34;93.85352;938.6096;;;;
2023/03/30 00:12:45;;;;;;;5.7;1.6;;;;;;;8.2;95.02734;938.6136;;;;
2023/03/30 00:15:08;;;;;;;5.3;1.9;;;;;;;8.21;95.06348;938.5665;;;;
2023/03/30 00:17:34;;;;;;;5;1.6;;;;;;;8.07;95.90625;938.4358;;;;
2023/03/30 00:20:08;;;;;;;5.7;1.5;;;;;;;8.13;96.30566;938.46;;;;
2023/03/30 00:22:31;;;;;;;5.5;2.2;;;;;;;8.02;95.56641;938.4404;;;;
2023/03/30 00:24:58;;;;;;;5.1;2.2;;;;;;;7.87;97.05469;938.4261;;;;
2023/03/30 00:28:31;;;;;;;14;6.4;;;;;;;7.64;96.77344;938.3713;;;;
2023/03/30 00:31:02;;;;;;;9.4;3.9;;;;;;;7.51;97.2207;938.3025;;;;
2023/03/30 00:34:32;;;;;;;6.1;2.8;;;;;;;7.44;97.89551;938.1847;;;;
2023/03/30 00:36:58;;;;;;;4.9;2.8;;;;;;;7.58;97.37305;938.3301;;;;
2023/03/30 00:39:28;;;;;;;41.2;16.1;;;;;;;7.53;96.90723;938.2617;;;;
2023/03/30 00:41:53;;;;;;;22.5;9.5;;;;;;;7.48;97.52051;938.3123;;;;
2023/03/30 00:44:22;;;;;;;15.7;6.7;;;;;;;7.42;98.58496;938.3134;;;;
2023/03/30 00:46:47;;;;;;;12.1;5.4;;;;;;;7.47;98.55078;938.2803;;;;
2023/03/30 00:49:16;;;;;;;12.5;5.6;;;;;;;7.61;97.59668;938.2226;;;;
2023/03/30 00:51:42;;;;;;;9.4;3.7;;;;;;;7.47;97.59766;938.2218;;;;
2023/03/30 00:54:11;;;;;;;7.8;3.2;;;;;;;7.59;97.05957;938.2076;;;;
2023/03/30 00:56:36;;;;;;;8.5;3.2;;;;;;;7.56;96.82324;938.0824;;;;
2023/03/30 00:59:02;;;;;;;10.7;3.3;;;;;;;7.43;97.53125;938.1931;;;;
2023/03/30 01:01:27;;;;;;;5.7;3.1;;;;;;;7.28;98.73145;938.1754;;;;
2023/03/30 01:03:56;;;;;;;7.3;3.4;;;;;;;7.31;99.29492;938.2181;;;;
2023/03/30 01:06:23;;;;;;;6.1;2.8;;;;;;;7.47;99.15137;938.1908;;;;
2023/03/30 01:08:45;;;;;;;7.4;2.6;;;;;;;7.5;98.55664;938.3016;;;;
2023/03/30 01:11:14;;;;;;;6.8;2.7;;;;;;;7.38;98.76758;938.298;;;;
2023/03/30 01:13:39;;;;;;;8.2;2.7;;;;;;;7.39;99.21191;938.2094;;;;
2023/03/30 01:16:41;;;;;;;5.7;2.5;;;;;;;7.36;99.33984;938.3639;;;;
2023/03/30 01:19:06;;;;;;;7.4;2.7;;;;;;;7.25;99.98535;938.3903;;;;
2023/03/30 01:21:31;;;;;;;4.8;2.8;;;;;;;7.23;100;938.4389;;;;
2023/03/30 01:23:57;;;;;;;6.1;2.8;;;;;;;7.23;100;938.2742;;;;
2023/03/30 01:26:22;;;;;;;10.1;4.3;;;;;;;7.25;100;938.3301;;;;
2023/03/30 01:28:47;;;;;;;9.8;3.3;;;;;;;7.37;100;938.2264;;;;
2023/03/30 01:31:16;;;;;;;4.9;2.5;;;;;;;7.56;100;938.2283;;;;
2023/03/30 01:33:40;;;;;;;6.6;2.4;;;;;;;7.78;99.26758;938.2569;;;;
2023/03/30 01:36:06;;;;;;;6.1;2.4;;;;;;;7.91;98.95801;938.3208;;;;
2023/03/30 01:38:35;;;;;;;4.8;2;;;;;;;8.03;98.54297;938.382;;;;
2023/03/30 01:41:02;;;;;;;8.3;2.6;;;;;;;8.09;98.16895;938.4734;;;;
2023/03/30 01:43:28;;;;;;;5.9;2.3;;;;;;;8.08;98.14648;938.4844;;;;
2023/03/30 01:45:55;;;;;;;5.2;1.9;;;;;;;8.15;98.28613;938.3176;;;;
2023/03/30 01:48:22;;;;;;;6.8;2.6;;;;;;;8.17;98.63086;938.2473;;;;
2023/03/30 01:50:48;;;;;;;5.3;1.8;;;;;;;8.12;99.34473;938.2883;;;;
2023/03/30 01:53:13;;;;;;;4.4;1.9;;;;;;;8.06;100;938.3889;;;;
2023/03/30 01:55:38;;;;;;;3.6;1.7;;;;;;;8.06;100;938.2809;;;;
2023/03/30 01:58:03;;;;;;;6.2;2.2;;;;;;;8.13;100;938.287;;;;
2023/03/30 02:01:42;;;;;;;7.3;3;;;;;;;8.18;100;938.2238;;;;
2023/03/30 02:04:08;;;;;;;6.8;2.3;;;;;;;8.34;100;938.1883;;;;
2023/03/30 02:06:37;;;;;;;6.4;2.2;;;;;;;8.35;100;938.2028;;;;
2023/03/30 02:09:00;;;;;;;6.4;2.3;;;;;;;8.39;100;938.0948;;;;
2023/03/30 02:12:16;;;;;;;6.7;2.3;;;;;;;8.51;100;938.1772;;;;
2023/03/30 02:14:46;;;;;;;5.8;1.9;;;;;;;8.5;100;938.1033;;;;
2023/03/30 02:17:12;;;;;;;4.8;1.9;;;;;;;8.43;100;938.068;;;;
2023/03/30 02:19:36;;;;;;;9.1;1.9;;;;;;;8.53;100;938.157;;;;
2023/03/30 02:22:01;;;;;;;6.7;1.7;;;;;;;8.66;100;938.0958;;;;
2023/03/30 02:24:30;;;;;;;4.3;1.9;;;;;;;8.69;99.5918;938.1122;;;;
2023/03/30 02:26:55;;;;;;;4.3;2.3;;;;;;;8.59;100;938.1627;;;;
2023/03/30 02:29:21;;;;;;;6.2;2.7;;;;;;;8.59;100;938.1364;;;;
2023/03/30 02:37:38;;;;;;;4.8;2;;;;;;;8.43;100;938.1021;;;;
2023/03/30 02:40:11;;;;;;;8.1;2.1;;;;;;;8.41;100;938.0629;;;;
2023/03/30 02:42:36;;;;;;;6;2.4;;;;;;;8.45;100;938.0499;;;;
2023/03/30 02:45:01;;;;;;;7.2;2.3;;;;;;;8.42;100;938.1345;;;;
2023/03/30 02:47:29;;;;;;;5.1;2.2;;;;;;;8.35;100;938.0386;;;;
2023/03/30 02:49:54;;;;;;;6.5;1.9;;;;;;;8.36;100;938.0165;;;;
2023/03/30 02:52:20;;;;;;;9.1;2.6;;;;;;;8.46;100;937.9407;;;;
2023/03/30 02:54:44;;;;;;;6.5;2.1;;;;;;;8.46;100;937.959;;;;
2023/03/30 02:57:09;;;;;;;6.7;2.5;;;;;;;8.54;100;937.9174;;;;
2023/03/30 02:59:38;;;;;;;7;2.3;;;;;;;8.64;100;937.921;;;;
2023/03/30 03:02:11;;;;;;;7.2;2.4;;;;;;;8.58;100;937.8093;;;;
2023/03/30 03:04:42;;;;;;;5.7;2.7;;;;;;;8.44;100;937.7103;;;;
2023/03/30 03:07:06;;;;;;;8.5;2.1;;;;;;;8.35;100;937.7689;;;;
2023/03/30 03:09:35;;;;;;;5.6;1.8;;;;;;;8.29;100;937.6834;;;;
2023/03/30 03:12:04;;;;;;;6.4;2.3;;;;;;;8.36;100;937.531;;;;
2023/03/30 03:14:29;;;;;;;5.4;2.2;;;;;;;8.38;100;937.5494;;;;
2023/03/30 03:16:55;;;;;;;6.6;2.1;;;;;;;8.45;100;937.4945;;;;
2023/03/30 03:21:25;;;;;;;4.7;2.5;;;;;;;8.42;100;937.4615;;;;
2023/03/30 03:23:35;;;;;;;7;2.2;;;;;;;8.37;100;937.389;;;;
2023/03/30 03:26:00;;;;;;;5.6;2.7;;;;;;;8.33;100;937.3484;;;;
2023/03/30 03:28:27;;;;;;;6.9;2.4;;;;;;;8.34;100;937.2084;;;;
2023/03/30 03:30:53;;;;;;;9.9;3.6;;;;;;;8.32;100;937.2555;;;;
2023/03/30 03:33:20;;;;;;;7.7;3.1;;;;;;;8.28;100;937.2589;;;;
2023/03/30 03:35:46;;;;;;;6.6;2.4;;;;;;;8.22;100;937.2031;;;;
2023/03/30 03:38:10;;;;;;;5.6;2.5;;;;;;;8.17;100;937.2115;;;;
2023/03/30 03:40:38;;;;;;;6.7;2.4;;;;;;;8.17;100;937.045;;;;
2023/03/30 03:43:03;;;;;;;7.3;2.3;;;;;;;8.16;100;937.0591;;;;
2023/03/30 03:46:52;;;;;;;12.8;5.1;;;;;;;8.13;100;936.9975;;;;
2023/03/30 03:49:21;;;;;;;9.5;2.9;;;;;;;8.19;100;936.9961;;;;
2023/03/30 03:51:46;;;;;;;6.3;2.8;;;;;;;8.12;100;936.9172;;;;
2023/03/30 03:54:11;;;;;;;6.3;2.7;;;;;;;8.12;100;936.9553;;;;
2023/03/30 03:56:41;;;;;;;9;2.9;;;;;;;8.11;100;936.9821;;;;
2023/03/30 03:59:22;;;;;;;11.8;5.8;;;;;;;8.15;100;936.94;;;;
2023/03/30 04:02:52;;;;;;;6.1;3;;;;;;;8;100;936.915;;;;
2023/03/30 04:05:17;;;;;;;6.5;3.5;;;;;;;7.99;100;936.9551;;;;
2023/03/30 04:07:47;;;;;;;7.7;5.9;;;;;;;8.09;100;936.9001;;;;
2023/03/30 04:10:30;;;;;;;9.8;4.1;;;;;;;8.16;100;936.9384;;;;
2023/03/30 04:12:58;;;;;;;7.4;2.7;;;;;;;8.12;100;936.934;;;;
2023/03/30 04:15:24;;;;;;;6.8;2.9;;;;;;;8.15;100;936.9724;;;;
2023/03/30 04:17:56;;;;;;;5.2;2.1;;;;;;;8.18;100;936.9364;;;;
2023/03/30 04:23:15;;;;;;;7.1;2.3;;;;;;;8.4;100;937.0428;;;;
2023/03/30 04:25:38;;;;;;;7.7;2.3;;;;;;;8.5;100;937.063;;;;
2023/03/30 04:28:05;;;;;;;6;2.5;;;;;;;8.57;100;937.0956;;;;
2023/03/30 04:30:30;;;;;;;6.4;2.6;;;;;;;8.59;100;937.0673;;;;
2023/03/30 04:33:03;;;;;;;7.1;2.7;;;;;;;8.58;100;937.0784;;;;
2023/03/30 04:35:24;;;;;;;8.2;3.6;;;;;;;8.55;100;937.1319;;;;
2023/03/30 04:37:54;;;;;;;8.8;3;;;;;;;8.47;100;937.1592;;;;
2023/03/30 04:40:25;;;;;;;5.5;2.9;;;;;;;8.44;100;937.1309;;;;
2023/03/30 04:42:53;;;;;;;7.3;2.4;;;;;;;8.45;100;937.178;;;;
2023/03/30 04:45:19;;;;;;;8.6;2.8;;;;;;;8.52;100;937.1394;;;;
2023/03/30 04:47:47;;;;;;;5.6;2.7;;;;;;;8.68;100;937.223;;;;
2023/03/30 04:51:09;;;;;;;14.7;6.2;;;;;;;8.8;100;937.2787;;;;
2023/03/30 04:53:35;;;;;;;9.8;4.7;;;;;;;8.76;100;937.3782;;;;
2023/03/30 04:56:03;;;;;;;12.3;4.5;;;;;;;8.81;100;937.4252;;;;
2023/03/30 04:58:28;;;;;;;9.8;4.9;;;;;;;8.72;100;937.4094;;;;
2023/03/30 05:00:57;;;;;;;11.8;7.5;;;;;;;8.58;100;937.4633;;;;
2023/03/30 05:03:22;;;;;;;8.4;4.3;;;;;;;8.53;100;937.538;;;;
2023/03/30 05:05:52;;;;;;;7.6;4.1;;;;;;;8.65;100;937.6376;;;;
2023/03/30 05:11:57;;;;;;;7.1;3;;;;;;;8.78;100;937.735;;;;
2023/03/30 05:14:25;;;;;;;5.5;2.8;;;;;;;8.8;100;938.0098;;;;
2023/03/30 05:16:51;;;;;;;6.7;2.6;;;;;;;8.72;100;938.0039;;;;
2023/03/30 05:19:21;;;;;;;6;2.3;;;;;;;8.72;100;938.0276;;;;
2023/03/30 05:21:52;;;;;;;10.1;3.7;;;;;;;8.72;100;938.0572;;;;
2023/03/30 05:24:17;;;;;;;5.5;2.5;;;;;;;8.62;100;938.004;;;;
2023/03/30 05:26:45;;;;;;;10.3;2.9;;;;;;;8.6;100;937.908;;;;
2023/03/30 05:29:10;;;;;;;7.7;2.7;;;;;;;8.6;100;937.8739;;;;
2023/03/30 05:31:36;;;;;;;7.1;3.4;;;;;;;8.43;100;937.7687;;;;
2023/03/30 05:34:01;;;;;;;9.4;3.5;;;;;;;8.49;100;937.6666;;;;
2023/03/30 05:36:30;;;;;;;8.2;3.9;;;;;;;8.46;100;937.6384;;;;
2023/03/30 05:38:56;;;;;;;11.6;3.9;;;;;;;8.58;100;937.5728;;;;
2023/03/30 05:41:42;;;;;;;10.8;5.2;;;;;;;8.64;100;937.582;;;;
2023/03/30 05:44:13;;;;;;;14.8;6.3;;;;;;;8.79;100;937.5343;;;;
2023/03/30 05:46:42;;;;;;;12.9;5.5;;;;;;;8.82;100;937.639;;;;
2023/03/30 05:51:46;;;;;;;8.4;3.2;;;;;;;8.77;100;937.6617;;;;
2023/03/30 05:54:13;;;;;;;10.4;3.6;;;;;;;8.79;100;937.4699;;;;
2023/03/30 05:56:41;;;;;;;10.3;3.6;;;;;;;8.86;100;937.418;;;;
2023/03/30 05:59:05;;;;;;;9.6;4;;;;;;;8.87;100;937.4546;;;;
2023/03/30 06:01:31;;;;;;;8.8;4.5;;;;;;;8.72;100;937.4126;;;;
2023/03/30 06:04:00;;;;;;;7.5;3.7;;;;;;;8.68;100;937.215;;;;
2023/03/30 06:06:25;;;;;;;7.9;2.8;;;;;;;8.65;100;937.1194;;;;
2023/03/30 06:08:55;;;;;;;10;3.7;;;;;;;8.71;100;937.0536;;;;
2023/03/30 06:12:23;;;;;;;8.2;3.5;;;;;;;8.73;100;936.98;;;;
2023/03/30 06:14:48;;;;;;;8.2;3.5;;;;;;;8.74;100;936.7349;;;;
2023/03/30 06:17:14;;;;;;;8.9;3.9;;;;;;;8.64;100;936.7859;;;;
2023/03/30 06:19:39;;;;;;;10.8;3.4;;;;;;;8.59;100;936.6578;;;;
2023/03/30 06:22:05;;;;;;;7.9;3.4;;;;;;;8.55;100;936.5875;;;;
2023/03/30 06:24:30;;;;;;;8.2;3.6;;;;;;;8.56;100;936.6011;;;;
2023/03/30 06:30:31;;;;;;;8.1;3.5;;;;;;;8.62;100;936.5173;;;;
2023/03/30 06:33:03;;;;;;;8.7;3.1;;;;;;;8.62;100;936.3691;;;;
2023/03/30 06:35:37;;;;;;;8.3;3.4;;;;;;;8.7;100;936.2414;;;;
2023/03/30 06:38:02;;;;;;;12.4;4.6;;;;;;;8.75;100;936.2469;;;;
2023/03/30 06:40:27;;;;;;;7.5;4.7;;;;;;;8.9;100;936.2768;;;;
2023/03/30 06:42:58;;;;;;;8.1;4.3;;;;;;;8.91;100;936.173;;;;
2023/03/30 06:45:27;;;;;;;8.1;3.8;;;;;;;8.84;100;936.2555;;;;
2023/03/30 06:47:52;;;;;;;9.3;3.4;;;;;;;8.93;100;936.2168;;;;
2023/03/30 06:50:18;;;;;;;7.9;4;;;;;;;9.07;100;936.1567;;;;
2023/03/30 06:52:48;;;;;;;6.9;2.8;;;;;;;9.27;100;936.0449;;;;
2023/03/30 06:55:17;;;;;;;6.9;2.3;;;;;;;9.43;99.63965;935.8816;;;;
2023/03/30 06:57:46;;;;;;;4.6;2.1;;;;;;;9.48;99.66016;935.9639;;;;
2023/03/30 07:00:14;;;;;;;6;2.7;;;;;;;9.46;100;935.8802;;;;
2023/03/30 07:02:36;;;;;;;8.5;3.1;;;;;;;9.42;100;935.7693;;;;
2023/03/30 07:05:02;;;;;;;6.1;3.4;;;;;;;9.42;100;935.8592;;;;
2023/03/30 07:07:33;;;;;;;6.4;3.2;;;;;;;9.46;100;935.8953;;;;
2023/03/30 07:10:38;;;;;;;5.3;3.4;;;;;;;9.73;100;935.8297;;;;
2023/03/30 07:13:07;;;;;;;6.7;2.5;;;;;;;9.99;97.69336;935.9045;;;;
2023/03/30 07:15:32;;;;;;;6.7;2.5;;;;;;;10.17;97.48145;935.8137;;;;
2023/03/30 07:18:01;;;;;;;7.3;2.4;;;;;;;10.42;97.19434;935.7748;;;;
2023/03/30 07:20:26;;;;;;;7.6;3.4;;;;;;;10.41;95.90234;935.7071;;;;
2023/03/30 07:22:55;;;;;;;9.9;4.9;;;;;;;10.38;96.58105;935.7329;;;;
2023/03/30 07:25:20;;;;;;;7.9;3.5;;;;;;;10.4;96.72266;935.7481;;;;
2023/03/30 07:27:50;;;;;;;9.5;4;;;;;;;10.41;97.02051;935.645;;;;
2023/03/30 07:30:23;;;;;;;7.8;3.7;;;;;;;10.31;97.30664;935.75;;;;
2023/03/30 07:32:55;;;;;;;8;2.9;;;;;;;10.39;97.02832;935.5977;;;;
2023/03/30 07:35:19;;;;;;;6;3.6;;;;;;;10.58;97.25391;935.6515;;;;
2023/03/30 07:37:47;;;;;;;7.6;3.1;;;;;;;10.75;96.14941;935.5809;;;;
2023/03/30 07:40:13;;;;;;;11.8;3.8;;;;;;;10.76;96.07227;935.6208;;;;
2023/03/30 07:42:43;;;;;;;6.8;3.1;;;;;;;10.79;96.07813;935.6536;;;;
2023/03/30 07:45:16;;;;;;;8;3.4;;;;;;;10.78;96.16699;935.6973;;;;
2023/03/30 07:47:45;;;;;;;9;3.9;;;;;;;11.01;97.38574;935.6756;;;;
2023/03/30 07:50:09;;;;;;;5.9;3.6;;;;;;;11.15;95.60938;935.6251;;;;
2023/03/30 07:52:40;;;;;;;9;3.5;;;;;;;11.34;93.15918;935.5804;;;;
2023/03/30 07:55:12;;;;;;;11.6;3.1;;;;;;;11.76;92.92578;935.473;;;;
2023/03/30 07:57:41;;;;;;;7.3;2.7;;;;;;;12.01;89.88867;935.4736;;;;
2023/03/30 08:00:13;;;;;;;4.6;2.6;;;;;;;12.17;88.93555;935.4601;;;;
2023/03/30 08:02:43;;;;;;;7.1;2.8;;;;;;;12.24;89.41992;935.3917;;;;
2023/03/30 08:05:10;;;;;;;6.9;2.9;;;;;;;12.41;87.83887;935.3881;;;;
2023/03/30 08:07:37;;;;;;;6;2.4;;;;;;;12.4;88.0752;935.3338;;;;
2023/03/30 08:10:10;;;;;;;6.1;2.2;;;;;;;12.44;85.71094;935.2558;;;;
2023/03/30 08:12:42;;;;;;;11.5;3.1;;;;;;;12.81;85.31348;935.1925;;;;
2023/03/30 08:15:16;;;;;;;7.2;2.8;;;;;;;13;85.68555;935.3445;;;;
2023/03/30 08:17:47;;;;;;;5.5;2.2;;;;;;;13.14;85.62012;935.2522;;;;
2023/03/30 08:20:22;;;;;;;7.1;2.6;;;;;;;13.53;82.98535;935.1291;;;;
2023/03/30 08:22:52;;;;;;;6;3;;;;;;;14.37;81.94336;935.1576;;;;
2023/03/30 08:25:17;;;;;;;6.9;2.8;;;;;;;14.33;80.96973;935.1891;;;;
2023/03/30 08:27:46;;;;;;;7;2.5;;;;;;;14.9;77.52246;935.1408;;;;
2023/03/30 08:30:12;;;;;;;7.6;3.5;;;;;;;14.47;78.19629;935.0545;;;;
2023/03/30 08:32:36;;;;;;;9.2;3.3;;;;;;;14.29;80.07715;935.0686;;;;
2023/03/30 08:35:02;;;;;;;6.4;2.8;;;;;;;14.43;79.5957;935.0374;;;;
2023/03/30 08:37:28;;;;;;;4.7;2;;;;;;;14.37;76.7959;935.0189;;;;
2023/03/30 08:39:55;;;;;;;3.6;1.4;;;;;;;14.37;70.0332;934.9253;;;;
2023/03/30 08:42:19;;;;;;;8;2.7;;;;;;;14.5;72.47656;934.9701;;;;
2023/03/30 08:44:44;;;;;;;4.4;1.7;;;;;;;15.11;70.29199;934.9708;;;;
2023/03/30 08:47:13;;;;;;;6.8;2;;;;;;;15.46;71.40918;935.0178;;;;
2023/03/30 08:49:38;;;;;;;9.6;2.3;;;;;;;16.4;71.76074;935.1204;;;;
2023/03/30 08:52:03;;;;;;;3.8;2.1;;;;;;;17.08;69.25293;935.0276;;;;
2023/03/30 08:54:28;;;;;;;3.2;1.8;;;;;;;16.67;68.93359;934.9957;;;;
2023/03/30 08:56:56;;;;;;;5.6;2.2;;;;;;;16.77;69.74902;935.038;;;;
2023/03/30 08:59:20;;;;;;;6.1;3;;;;;;;16.02;71.0166;935.0375;;;;
2023/03/30 09:01:46;;;;;;;10.1;3;;;;;;;15.21;73.42383;935.0528;;;;
2023/03/30 09:04:15;;;;;;;5.7;2.7;;;;;;;14.95;75.99805;935.0616;;;;
2023/03/30 09:06:43;;;;;;;7;3.4;;;;;;;14.99;77.84082;935.0611;;;;
2023/03/30 09:09:08;;;;;;;6.1;2.8;;;;;;;15.13;76.44531;934.9769;;;;
2023/03/30 09:11:33;;;;;;;9.1;2.9;;;;;;;15.29;75.25;934.8884;;;;
2023/03/30 09:14:00;;;;;;;5.7;2.8;;;;;;;15.63;73.75977;934.845;;;;
2023/03/30 09:16:24;;;;;;;9;2.5;;;;;;;15.63;72.33887;934.8474;;;;
2023/03/30 09:18:49;;;;;;;4.7;1.6;;;;;;;15.77;70.33008;934.7841;;;;
2023/03/30 09:21:14;;;;;;;4.1;1.5;;;;;;;15.93;69.47461;934.8091;;;;
2023/03/30 09:23:39;;;;;;;3.8;1.5;;;;;;;16.34;69.20508;934.7503;;;;
2023/03/30 09:26:05;;;;;;;4.7;1.4;;;;;;;16.96;68.20117;934.6758;;;;
2023/03/30 09:28:30;;;;;;;5.2;1.7;;;;;;;18.39;65.50684;934.6057;;;;
2023/03/30 09:30:55;;;;;;;4.7;1.5;;;;;;;19.04;63.20508;934.5898;;;;
2023/03/30 09:33:20;;;;;;;3.8;1.6;;;;;;;20.04;59.05371;934.6465;;;;
2023/03/30 09:35:45;;;;;;;2.6;1.3;;;;;;;21.04;56.93164;934.6456;;;;
2023/03/30 09:38:11;;;;;;;5.3;1.6;;;;;;;20.76;56.28809;934.6788;;;;
2023/03/30 09:40:42;;;;;;;4.4;1.7;;;;;;;20.52;54.97168;934.69;;;;
2023/03/30 09:43:09;;;;;;;3.6;1.4;;;;;;;20.35;55.26563;934.6508;;;;
2023/03/30 09:45:34;;;;;;;4.3;1.5;;;;;;;19.57;57.01074;934.7039;;;;
2023/03/30 09:47:59;;;;;;;5.8;1.9;;;;;;;19.57;58.09473;934.604;;;;
2023/03/30 09:50:25;;;;;;;6.1;1.5;;;;;;;20.18;55.90918;934.5722;;;;
2023/03/30 09:52:55;;;;;;;4.2;1.6;;;;;;;19.86;52.88281;934.4751;;;;
2023/03/30 09:55:19;;;;;;;5.1;1.2;;;;;;;18.63;56.93555;934.3717;;;;
2023/03/30 09:57:45;;;;;;;8.8;2;;;;;;;18.25;57.71191;934.3054;;;;
2023/03/30 10:00:12;;;;;;;4.3;1.3;;;;;;;18.11;59.0293;934.3321;;;;
2023/03/30 10:02:45;;;;;;;3.4;1;;;;;;;19.32;58.5625;934.3292;;;;
2023/03/30 10:05:16;;;;;;;5.9;2.1;;;;;;;20.4;53.54395;934.2317;;;;
2023/03/30 10:07:46;;;;;;;5.3;1.9;;;;;;;20.93;46.47559;934.1841;;;;
2023/03/30 10:10:14;;;;;;;2.3;1.3;;;;;;;21.6;46.82715;934.1587;;;;
2023/03/30 10:12:46;;;;;;;3.4;1.4;;;;;;;22.73;45.65527;934.0291;;;;
2023/03/30 10:15:14;;;;;;;4.8;1.5;;;;;;;23.25;45.4375;933.9556;;;;
2023/03/30 10:17:39;;;;;;;4.6;1.3;;;;;;;23.51;42.3125;933.9763;;;;
2023/03/30 10:20:06;;;;;;;3.5;1.2;;;;;;;23.6;42.08594;934.0568;;;;
2023/03/30 10:22:33;;;;;;;5.6;1.6;;;;;;;23.17;43.5498;934.0517;;;;
2023/03/30 10:25:02;;;;;;;5.2;1.1;;;;;;;23.25;41.62988;933.9986;;;;
2023/03/30 10:27:36;;;;;;;3.7;1.2;;;;;;;23.45;42.4834;934.0644;;;;
2023/03/30 10:30:00;;;;;;;4.5;1.2;;;;;;;23.78;41.09082;934.0167;;;;
2023/03/30 10:32:29;;;;;;;6.1;1.8;;;;;;;23.05;40.78906;933.9116;;;;
2023/03/30 10:34:54;;;;;;;3.1;1.1;;;;;;;22.46;41.2627;933.9325;;;;
2023/03/30 10:37:19;;;;;;;4.4;1.6;;;;;;;22.99;43.46094;933.8792;;;;
2023/03/30 10:39:44;;;;;;;5.3;1.3;;;;;;;22.6;42.54297;933.8447;;;;
2023/03/30 10:42:09;;;;;;;6.5;1.5;;;;;;;21.42;44.44434;933.8373;;;;
2023/03/30 10:44:35;;;;;;;2.5;1.3;;;;;;;21.41;46.64258;933.7781;;;;
2023/03/30 10:47:02;;;;;;;3.5;1.3;;;;;;;21.26;45.90234;933.7278;;;;
2023/03/30 10:49:29;;;;;;;3.9;1.5;;;;;;;20.73;47.38867;933.688;;;;
2023/03/30 10:51:54;;;;;;;4;1.4;;;;;;;20;47.50977;933.646;;;;
2023/03/30 10:54:19;;;;;;;6.4;1.5;;;;;;;20.41;46.05859;933.6586;;;;
2023/03/30 10:56:45;;;;;;;3.6;1.3;;;;;;;20.65;46.50488;933.6503;;;;
2023/03/30 10:59:10;;;;;;;4;1.2;;;;;;;20.58;45.46875;933.6283;;;;
2023/03/30 11:01:36;;;;;;;4.3;1.2;;;;;;;19.88;47.46191;933.6486;;;;
2023/03/30 11:04:04;;;;;;;5;1.3;;;;;;;19.58;50.09863;933.7297;;;;
2023/03/30 11:06:29;;;;;;;5.4;1.8;;;;;;;19.37;49.56348;933.8117;;;;
2023/03/30 11:08:56;;;;;;;5.5;1.8;;;;;;;19.34;50.45703;933.8005;;;;
2023/03/30 11:11:21;;;;;;;4.6;1.3;;;;;;;19.34;53.15918;933.9227;;;;
2023/03/30 11:13:46;;;;;;;5.2;1.3;;;;;;;19.32;50.80371;934.0022;;;;
2023/03/30 11:16:11;;;;;;;6.1;1.7;;;;;;;19.08;52.46484;934.0464;;;;
2023/03/30 11:18:37;;;;;;;3.5;1.6;;;;;;;18.78;52.16016;934.0491;;;;
2023/03/30 11:21:02;;;;;;;3.3;1.5;;;;;;;18.31;54.34863;934.0895;;;;
2023/03/30 11:23:27;;;;;;;4.1;1.4;;;;;;;18.49;55.24121;934.0349;;;;
2023/03/30 11:25:52;;;;;;;5.9;1.6;;;;;;;18.83;53.94824;933.9025;;;;
2023/03/30 11:28:17;;;;;;;3.6;1.7;;;;;;;19;55.3291;933.9558;;;;
2023/03/30 11:30:42;;;;;;;5.6;1.6;;;;;;;19.28;54.95801;934.0323;;;;
2023/03/30 11:33:07;;;;;;;5.8;1.6;;;;;;;19.4;56.69727;934.0991;;;;
2023/03/30 11:35:33;;;;;;;7.2;1.9;;;;;;;19.21;55.40332;934.0407;;;;
2023/03/30 11:37:58;;;;;;;6.7;1.8;;;;;;;19.33;56.73438;934.1505;;;;
2023/03/30 11:40:23;;;;;;;3.7;1.4;;;;;;;19.33;58.01465;934.2442;;;;
2023/03/30 11:42:50;;;;;;;5.2;1.8;;;;;;;19.13;58.4209;934.3298;;;;
2023/03/30 11:45:19;;;;;;;3.9;1.7;;;;;;;18.49;60.60156;934.4558;;;;
2023/03/30 11:47:44;;;;;;;6;2.2;;;;;;;18.08;60.62793;934.5086;;;;
2023/03/30 11:50:16;;;;;;;6.6;1.9;;;;;;;18.22;60.32324;934.6519;;;;
2023/03/30 11:52:41;;;;;;;9.5;2;;;;;;;17.9;64.5752;934.5555;;;;
2023/03/30 11:55:06;;;;;;;8.6;2.1;;;;;;;17.1;71.26074;934.7689;;;;
2023/03/30 11:57:31;;;;;;;20.5;9.2;;;;;;;16.59;69.56934;934.741;;;;
2023/03/30 12:00:01;;;;;;;7.2;2.1;;;;;;;16.44;70.54004;934.7986;;;;
2023/03/30 12:02:25;;;;;;;9.8;2.7;;;;;;;16.24;72.72949;934.9842;;;;
2023/03/30 12:04:51;;;;;;;7.8;2;;;;;;;16.04;70.16406;935.1336;;;;
2023/03/30 12:07:17;;;;;;;8.6;2.4;;;;;;;15.95;71.92969;935.2922;;;;
2023/03/30 12:09:42;;;;;;;8.9;2;;;;;;;15.94;72.36816;935.3405;;;;
2023/03/30 12:12:14;;;;;;;5.6;1.8;;;;;;;15.98;70.86035;935.4338;;;;
2023/03/30 12:14:36;;;;;;;7.1;2.8;;;;;;;15.65;73.31348;935.5349;;;;
2023/03/30 12:17:02;;;;;;;4.5;1.3;;;;;;;14.98;67.96484;935.5887;;;;
2023/03/30 12:19:29;;;;;;;3.7;2;;;;;;;14.87;70.97949;935.8699;;;;
2023/03/30 12:21:54;;;;;;;6.5;1.4;;;;;;;14.74;72.18066;935.9631;;;;
2023/03/30 12:24:19;;;;;;;4.7;0.9;;;;;;;14.39;73.91992;936.0666;;;;
2023/03/30 12:26:44;;;;;;;6.8;1.5;;;;;;;14.08;79.62207;936.092;;;;
2023/03/30 12:29:12;;;;;;;6;1.8;;;;;;;14.14;83.49219;936.0795;;;;
2023/03/30 12:31:38;;;;;;;4.8;1.6;;;;;;;13.86;83.79297;936.1902;;;;
2023/03/30 12:34:03;;;;;;;6.1;1.9;;;;;;;13.52;86.71582;936.2195;;;;
2023/03/30 12:36:33;;;;;;;4.9;2;;;;;;;13.4;88.51074;936.3582;;;;
2023/03/30 12:39:01;;;;;;;3.6;1.4;;;;;;;13.33;88.49609;936.3113;;;;
2023/03/30 12:41:24;;;;;;;2.8;1.1;;;;;;;13.26;89.66504;936.2597;;;;
2023/03/30 12:43:51;;;;;;;3.4;1.6;;;;;;;13.15;89.18066;936.3658;;;;
2023/03/30 12:46:26;;;;;;;5;1.7;;;;;;;12.99;89.06934;936.3669;;;;
2023/03/30 12:48:49;;;;;;;3.7;1.3;;;;;;;12.94;88.02637;936.2679;;;;
2023/03/30 12:51:18;;;;;;;4.8;1.7;;;;;;;12.94;90.33398;936.2447;;;;
2023/03/30 12:53:43;;;;;;;5.5;3.4;;;;;;;12.61;91.9873;936.2428;;;;
2023/03/30 12:56:12;;;;;;;12.5;6.1;;;;;;;12.42;92.69141;936.1566;;;;
2023/03/30 12:58:42;;;;;;;8.8;4.7;;;;;;;12.44;93.31641;936.0911;;;;
2023/03/30 13:01:07;;;;;;;4.1;2.6;;;;;;;12.46;92.51563;935.9992;;;;
2023/03/30 13:03:32;;;;;;;4.7;2.5;;;;;;;12.31;93.26367;936.0319;;;;
2023/03/30 13:05:57;;;;;;;7.6;2.9;;;;;;;12.23;95.19531;936.0511;;;;
2023/03/30 13:08:22;;;;;;;4.5;2;;;;;;;12.13;93.1123;936.0771;;;;
2023/03/30 13:10:50;;;;;;;2.7;1.5;;;;;;;12.05;92.83008;936.0835;;;;
2023/03/30 13:13:15;;;;;;;4.1;2.2;;;;;;;12.15;92.44043;936.1362;;;;
2023/03/30 13:15:43;;;;;;;2.9;2;;;;;;;12.32;92.44043;936.1156;;;;
2023/03/30 13:18:08;;;;;;;2.9;1.7;;;;;;;12.24;92.25098;936.0997;;;;
2023/03/30 13:20:36;;;;;;;4;1.8;;;;;;;12.22;92.36035;936.1875;;;;
2023/03/30 13:23:01;;;;;;;3.8;2.3;;;;;;;12.16;92.73828;936.1809;;;;
2023/03/30 13:25:25;;;;;;;3.8;1.7;;;;;;;12.09;92.76855;936.204;;;;
2023/03/30 13:27:51;;;;;;;2.5;1.7;;;;;;;11.7;95.6875;936.0345;;;;
2023/03/30 13:30:17;;;;;;;3.2;1.5;;;;;;;11.68;97.13477;936.0313;;;;
2023/03/30 13:32:42;;;;;;;6.3;3.1;;;;;;;11.68;98.03906;935.9579;;;;
2023/03/30 13:35:12;;;;;;;4.3;3.1;;;;;;;11.69;98.34863;935.9787;;;;
2023/03/30 13:37:38;;;;;;;4.8;2.8;;;;;;;11.79;98.26953;935.9113;;;;
2023/03/30 13:40:10;;;;;;;3;1.9;;;;;;;11.8;97.62109;935.8331;;;;
2023/03/30 13:42:36;;;;;;;5.8;2.3;;;;;;;11.96;96.31543;935.78;;;;
2023/03/30 13:45:03;;;;;;;3.8;2.2;;;;;;;11.88;95.09473;935.8342;;;;
2023/03/30 13:47:31;;;;;;;4.5;2.3;;;;;;;11.95;95.76367;935.8326;;;;
2023/03/30 13:49:56;;;;;;;4.7;1.9;;;;;;;11.91;95.10059;935.7744;;;;
2023/03/30 13:52:22;;;;;;;3.5;2;;;;;;;11.78;95.48535;935.7092;;;;
2023/03/30 13:54:47;;;;;;;3.2;2.1;;;;;;;11.76;95.35352;935.7115;;;;
2023/03/30 13:57:12;;;;;;;5.5;2.5;;;;;;;11.78;95.50879;935.6485;;;;
2023/03/30 13:59:37;;;;;;;4.9;1.9;;;;;;;11.7;95.43359;935.6995;;;;
2023/03/30 14:02:02;;;;;;;4.5;1.9;;;;;;;11.83;96.35449;935.7185;;;;
2023/03/30 14:04:27;;;;;;;6.3;2.4;;;;;;;11.97;93.85645;935.7313;;;;
2023/03/30 14:06:53;;;;;;;3.2;1.8;;;;;;;11.75;93.625;935.6677;;;;
2023/03/30 14:09:17;;;;;;;4.3;2.1;;;;;;;11.72;93.18359;935.6677;;;;
2023/03/30 14:11:44;;;;;;;5.4;2.5;;;;;;;11.72;95.04785;935.5408;;;;
2023/03/30 14:14:09;;;;;;;2.6;1.7;;;;;;;11.79;93.08496;935.5706;;;;
2023/03/30 14:16:39;;;;;;;3.7;1.9;;;;;;;11.55;92.08203;935.3976;;;;
2023/03/30 14:19:04;;;;;;;4.5;2.1;;;;;;;11.63;94.55859;935.4283;;;;
2023/03/30 14:21:29;;;;;;;2.7;1.5;;;;;;;11.81;93.81055;935.3428;;;;
2023/03/30 14:23:54;;;;;;;4.2;1.4;;;;;;;11.62;95.19824;935.2456;;;;
2023/03/30 14:26:23;;;;;;;2.2;1.3;;;;;;;11.67;96.28613;935.2481;;;;
2023/03/30 14:28:49;;;;;;;1.5;1.3;;;;;;;11.9;95.19238;935.291;;;;
2023/03/30 14:31:13;;;;;;;2;1.1;;;;;;;11.69;93.66992;935.2552;;;;
2023/03/30 14:33:39;;;;;;;3.4;1.6;;;;;;;11.56;93.87891;935.231;;;;
2023/03/30 14:36:07;;;;;;;2.6;1.2;;;;;;;11.79;92.12109;935.2084;;;;
2023/03/30 14:38:33;;;;;;;3.9;1.4;;;;;;;12.05;90.85938;935.2136;;;;
2023/03/30 14:40:56;;;;;;;2.6;1.4;;;;;;;12.11;88.62598;935.267;;;;
2023/03/30 14:43:25;;;;;;;4.2;1.7;;;;;;;12.24;89.99316;935.212;;;;
2023/03/30 14:45:49;;;;;;;2.8;1.6;;;;;;;12.25;88.83691;935.3582;;;;
2023/03/30 14:48:17;;;;;;;3.1;1.7;;;;;;;12.33;90.5625;935.4689;;;;
2023/03/30 14:50:42;;;;;;;2.9;1.8;;;;;;;12.37;91.47559;935.5543;;;;
2023/03/30 14:53:07;;;;;;;7.1;3.7;;;;;;;12.29;91.3916;935.7477;;;;
2023/03/30 14:55:36;;;;;;;10.7;7.3;;;;;;;12.03;92.26465;935.9383;;;;
2023/03/30 14:58:01;;;;;;;11.7;7.4;;;;;;;11.89;92.72656;936.0193;;;;
2023/03/30 15:00:29;;;;;;;5;4.1;;;;;;;11.99;90.27246;936.1088;;;;
2023/03/30 15:02:52;;;;;;;1.1;0.8;;;;;;;12.02;89.61426;936.2128;;;;
2023/03/30 15:05:21;;;;;;;1.9;1.4;;;;;;;11.88;90.69727;936.2076;;;;
2023/03/30 15:07:47;;;;;;;2.5;1.3;;;;;;;11.96;91.50488;936.38;;;;
2023/03/30 15:10:15;;;;;;;2.4;1.4;;;;;;;11.9;92.45313;936.5108;;;;
2023/03/30 15:12:41;;;;;;;3.4;2.1;;;;;;;11.86;93.6709;936.601;;;;
2023/03/30 15:15:06;;;;;;;4.3;2;;;;;;;11.7;95.31836;936.6797;;;;
2023/03/30 15:17:31;;;;;;;3;2;;;;;;;11.56;95.89355;936.64;;;;
2023/03/30 15:19:56;;;;;;;6.7;3.4;;;;;;;11.48;96.69922;936.4572;;;;